Time;durP1;ratioP1;P1;durP2;ratioP2;P2;SDS_P1;SDS_P2;PMS_P1;PMS_P2;Temp;Humidity;BMP_temperature;BMP_pressure;BME280_temperature;BME280_humidity;BME280_pressure;Samples;Min_cycle;Max_cycle;Signal;HPM_P1;HPM_P2
2023/04/22 00:01:36;;;;;;;2.33;2.13;;;18.90;44.60;;;;;;5021969;28;20215;-68
2023/04/22 00:04:02;;;;;;;2.20;2.10;;;18.90;44.60;;;;;;5017640;28;20627;-67
2023/04/22 00:06:27;;;;;;;2.27;2.17;;;18.90;44.60;;;;;;5019178;28;20453;-67
2023/04/22 00:08:53;;;;;;;1.77;1.67;;;18.90;44.60;;;;;;5017374;28;20246;-69
2023/04/22 00:11:19;;;;;;;1.77;1.67;;;18.90;44.60;;;;;;5018063;28;20246;-71
2023/04/22 00:13:45;;;;;;;1.70;1.60;;;18.90;44.70;;;;;;5019028;28;20464;-72
2023/04/22 00:16:10;;;;;;;2.00;1.90;;;18.90;44.60;;;;;;5017878;28;20219;-69
2023/04/22 00:18:36;;;;;;;1.90;1.80;;;18.90;44.70;;;;;;5021111;28;20302;-67
2023/04/22 00:21:03;;;;;;;2.23;2.13;;;18.90;44.60;;;;;;5017396;28;20256;-68
2023/04/22 00:23:28;;;;;;;2.00;1.90;;;18.90;44.60;;;;;;5017451;28;20221;-67
2023/04/22 00:25:54;;;;;;;2.13;1.80;;;18.90;44.70;;;;;;5018313;28;20448;-71
2023/04/22 00:28:19;;;;;;;1.77;1.67;;;18.90;44.70;;;;;;5013705;28;20289;-73
2023/04/22 00:30:45;;;;;;;1.80;1.70;;;18.90;44.60;;;;;;5016604;28;20714;-68
2023/04/22 00:33:10;;;;;;;2.00;1.90;;;18.90;44.60;;;;;;5020527;28;20226;-67
2023/04/22 00:35:36;;;;;;;1.93;1.83;;;18.90;44.60;;;;;;5018636;28;20230;-71
2023/04/22 00:38:01;;;;;;;1.77;1.67;;;18.90;44.70;;;;;;5020775;28;20234;-72
2023/04/22 00:40:27;;;;;;;1.70;1.60;;;18.90;44.70;;;;;;5018041;28;20227;-67
2023/04/22 00:42:54;;;;;;;1.80;1.70;;;18.90;44.70;;;;;;5018903;28;20273;-68
2023/04/22 00:45:20;;;;;;;1.93;1.83;;;18.90;45.50;;;;;;5016321;28;20597;-68
2023/04/22 00:47:46;;;;;;;1.70;1.60;;;18.90;44.70;;;;;;5015957;28;20435;-68
2023/04/22 00:50:12;;;;;;;1.90;1.80;;;18.90;44.70;;;;;;5012504;28;20231;-73
2023/04/22 00:52:38;;;;;;;1.70;1.60;;;18.90;44.70;;;;;;5018570;28;20474;-68
2023/04/22 00:55:04;;;;;;;1.50;1.40;;;18.90;44.70;;;;;;5016992;28;20222;-73
2023/04/22 00:57:31;;;;;;;2.00;1.87;;;18.90;44.60;;;;;;5017060;28;20238;-70
2023/04/22 00:59:57;;;;;;;2.70;2.50;;;18.90;44.70;;;;;;5017860;28;20886;-70
2023/04/22 01:02:22;;;;;;;1.80;1.70;;;18.90;44.70;;;;;;5017224;28;20426;-68
2023/04/22 01:04:48;;;;;;;1.90;1.80;;;18.90;44.70;;;;;;5020522;28;20215;-72
2023/04/22 01:07:13;;;;;;;1.80;1.70;;;18.90;44.70;;;;;;5019141;28;21034;-69
2023/04/22 01:09:39;;;;;;;1.73;1.63;;;18.90;44.70;;;;;;5018660;28;20257;-69
2023/04/22 01:12:05;;;;;;;2.10;2.00;;;18.90;44.70;;;;;;5019395;28;20230;-71
2023/04/22 01:14:31;;;;;;;1.70;1.60;;;18.90;44.80;;;;;;5013207;28;20474;-71
2023/04/22 01:16:57;;;;;;;1.70;1.60;;;18.80;44.70;;;;;;5015050;28;20219;-74
2023/04/22 01:19:23;;;;;;;1.80;1.70;;;18.90;44.70;;;;;;5015053;28;20234;-69
2023/04/22 01:21:50;;;;;;;2.20;2.10;;;18.90;44.70;;;;;;5012220;28;20226;-72
2023/04/22 01:24:16;;;;;;;1.90;1.80;;;18.80;44.60;;;;;;5013320;28;20448;-72
2023/04/22 01:26:42;;;;;;;1.60;1.50;;;18.90;44.70;;;;;;5017082;28;20449;-66
2023/04/22 01:29:08;;;;;;;2.57;2.47;;;18.90;44.70;;;;;;5016848;28;20226;-66
2023/04/22 01:31:33;;;;;;;2.10;2.00;;;18.90;44.80;;;;;;5016696;28;20298;-67
2023/04/22 01:34:00;;;;;;;1.70;1.60;;;18.80;44.70;;;;;;5022053;28;20253;-67
2023/04/22 01:36:26;;;;;;;1.80;1.70;;;18.90;44.80;;;;;;5019112;28;20230;-68
2023/04/22 01:38:51;;;;;;;2.43;1.93;;;18.90;44.80;;;;;;5025334;28;20450;-68
2023/04/22 01:41:18;;;;;;;1.90;1.80;;;18.90;44.80;;;;;;5021812;28;20449;-67
2023/04/22 01:43:43;;;;;;;1.70;1.60;;;18.90;44.70;;;;;;5017875;28;20222;-69
2023/04/22 01:46:09;;;;;;;2.10;2.00;;;18.90;44.80;;;;;;5023333;28;20472;-67
2023/04/22 01:48:35;;;;;;;3.20;2.07;;;18.90;44.80;;;;;;5023471;28;20711;-67
2023/04/22 01:51:02;;;;;;;2.13;2.03;;;18.80;44.70;;;;;;5020456;28;20226;-68
2023/04/22 01:53:27;;;;;;;1.73;1.63;;;18.90;44.80;;;;;;5021242;28;20430;-69
2023/04/22 01:55:53;;;;;;;2.23;2.10;;;18.90;44.80;;;;;;5019772;28;20427;-75
2023/04/22 01:58:18;;;;;;;1.80;1.70;;;18.90;44.80;;;;;;5021603;28;20226;-67
2023/04/22 02:00:44;;;;;;;1.90;1.80;;;18.90;44.80;;;;;;5018431;28;20247;-73
2023/04/22 02:03:10;;;;;;;2.10;2.00;;;18.80;44.70;;;;;;5022060;28;20292;-69
2023/04/22 02:05:37;;;;;;;2.00;1.90;;;18.80;44.80;;;;;;5018534;28;20234;-69
2023/04/22 02:08:03;;;;;;;1.90;1.80;;;18.90;44.80;;;;;;5018790;28;20238;-69
2023/04/22 02:10:29;;;;;;;2.07;1.97;;;18.90;44.80;;;;;;5015087;28;20464;-67
2023/04/22 02:12:55;;;;;;;1.80;1.70;;;18.80;44.80;;;;;;5019605;28;20546;-69
2023/04/22 02:15:21;;;;;;;1.90;1.80;;;18.90;44.80;;;;;;5017608;28;20444;-73
2023/04/22 02:17:47;;;;;;;1.73;1.63;;;18.90;44.80;;;;;;5020969;28;20261;-69
2023/04/22 02:20:13;;;;;;;1.83;1.73;;;18.90;44.80;;;;;;5012263;28;20419;-71
2023/04/22 02:22:40;;;;;;;2.00;1.90;;;18.90;44.80;;;;;;5020069;28;20269;-67
2023/04/22 02:25:07;;;;;;;1.90;1.80;;;18.80;44.80;;;;;;5019741;28;20223;-70
2023/04/22 02:27:33;;;;;;;1.77;1.67;;;18.80;44.80;;;;;;5016177;28;20435;-69
2023/04/22 02:29:58;;;;;;;1.80;1.70;;;18.90;44.90;;;;;;5016992;28;20504;-70
2023/04/22 02:32:24;;;;;;;1.97;1.87;;;18.90;44.90;;;;;;5013373;28;20218;-70
2023/04/22 02:34:49;;;;;;;2.20;2.10;;;18.90;44.90;;;;;;5018081;28;20225;-71
2023/04/22 02:37:15;;;;;;;2.10;2.00;;;18.90;44.90;;;;;;5019589;28;20324;-72
2023/04/22 02:39:41;;;;;;;1.87;1.77;;;18.90;45.00;;;;;;5017999;28;20637;-69
2023/04/22 02:42:06;;;;;;;2.17;1.97;;;18.80;44.90;;;;;;5014793;28;20232;-69
2023/04/22 02:44:32;;;;;;;1.80;1.70;;;18.90;44.90;;;;;;5017523;28;20229;-69
2023/04/22 02:46:57;;;;;;;1.70;1.60;;;18.90;44.90;;;;;;5018541;28;20234;-67
2023/04/22 02:49:23;;;;;;;2.17;2.07;;;18.80;44.80;;;;;;5020057;28;20292;-69
2023/04/22 02:51:48;;;;;;;1.70;1.60;;;18.90;44.90;;;;;;5021713;28;20690;-67
2023/04/22 02:54:14;;;;;;;1.80;1.70;;;18.90;44.90;;;;;;5018893;28;20235;-68
2023/04/22 02:56:39;;;;;;;2.77;1.73;;;18.90;45.00;;;;;;5018865;28;23293;-68
2023/04/22 02:59:05;;;;;;;1.93;1.83;;;18.80;44.80;;;;;;5018885;28;20243;-67
2023/04/22 03:01:31;;;;;;;2.27;2.17;;;18.80;44.80;;;;;;5020798;28;20313;-68
2023/04/22 03:03:56;;;;;;;2.17;2.07;;;18.80;44.80;;;;;;5017858;28;20241;-67
2023/04/22 03:06:22;;;;;;;1.60;1.50;;;18.90;44.90;;;;;;5021495;28;20215;-68
2023/04/22 03:08:47;;;;;;;2.03;1.93;;;18.80;44.80;;;;;;5018962;28;20219;-67
2023/04/22 03:11:13;;;;;;;1.90;1.80;;;18.90;45.70;;;;;;5021640;28;20277;-69
2023/04/22 03:13:38;;;;;;;2.13;2.03;;;18.80;44.80;;;;;;5015619;28;20876;-72
2023/04/22 03:16:04;;;;;;;1.90;1.70;;;18.80;44.80;;;;;;5017834;28;20246;-67
2023/04/22 03:18:30;;;;;;;1.80;1.70;;;18.80;44.80;;;;;;5017255;28;20235;-75
2023/04/22 03:20:55;;;;;;;1.70;1.60;;;18.80;44.80;;;;;;5016860;28;20434;-72
2023/04/22 03:23:21;;;;;;;2.17;2.07;;;18.80;44.80;;;;;;5014113;28;20210;-70
2023/04/22 03:25:47;;;;;;;1.97;1.87;;;18.80;44.80;;;;;;5019223;28;20231;-67
2023/04/22 03:28:12;;;;;;;2.30;2.10;;;18.80;44.80;;;;;;5014480;28;21552;-70
2023/04/22 03:30:38;;;;;;;2.30;2.10;;;18.80;44.90;;;;;;5016318;28;20306;-72
2023/04/22 03:33:04;;;;;;;1.67;1.57;;;18.80;44.90;;;;;;5018661;28;20690;-67
2023/04/22 03:35:29;;;;;;;2.07;1.97;;;18.80;44.80;;;;;;5012328;28;20219;-67
2023/04/22 03:37:55;;;;;;;1.87;1.77;;;18.80;44.90;;;;;;5016678;28;20771;-76
2023/04/22 03:40:20;;;;;;;1.80;1.70;;;18.80;44.90;;;;;;5015780;28;20357;-71
2023/04/22 03:42:46;;;;;;;2.43;1.60;;;18.80;44.80;;;;;;5018294;28;20222;-69
2023/04/22 03:45:11;;;;;;;1.80;1.70;;;18.80;44.80;;;;;;5019954;28;20276;-67
2023/04/22 03:47:37;;;;;;;1.77;1.67;;;18.80;44.90;;;;;;5021100;28;20618;-70
2023/04/22 03:50:03;;;;;;;2.00;1.90;;;18.80;44.90;;;;;;5020137;28;21250;-72
2023/04/22 03:52:28;;;;;;;1.80;1.70;;;18.80;45.00;;;;;;5020440;28;20222;-67
2023/04/22 03:54:54;;;;;;;1.97;1.60;;;18.80;44.90;;;;;;5022865;28;20234;-68
2023/04/22 03:57:19;;;;;;;2.37;2.17;;;18.80;44.90;;;;;;5020619;28;20640;-72
2023/04/22 03:59:45;;;;;;;1.80;1.70;;;18.80;44.90;;;;;;5017069;28;20269;-70
2023/04/22 04:02:10;;;;;;;1.70;1.60;;;18.80;44.90;;;;;;5016439;28;20238;-72
2023/04/22 04:04:36;;;;;;;2.03;1.93;;;18.80;44.90;;;;;;5017558;28;20219;-77
2023/04/22 04:07:01;;;;;;;2.03;1.93;;;18.80;44.90;;;;;;5018354;28;20214;-68
2023/04/22 04:09:27;;;;;;;1.80;1.70;;;18.80;44.90;;;;;;5013550;28;20309;-67
2023/04/22 04:11:52;;;;;;;1.73;1.63;;;18.80;44.90;;;;;;5018203;28;20821;-68
2023/04/22 04:14:18;;;;;;;2.17;2.07;;;18.80;45.00;;;;;;5018719;28;20223;-72
2023/04/22 04:16:43;;;;;;;1.90;1.80;;;18.80;45.00;;;;;;5015283;28;20306;-71
2023/04/22 04:19:09;;;;;;;1.60;1.50;;;18.80;45.00;;;;;;5017769;28;20233;-67
2023/04/22 04:21:36;;;;;;;1.77;1.67;;;18.80;44.90;;;;;;5017106;28;20210;-74
2023/04/22 04:24:02;;;;;;;1.90;1.80;;;18.80;44.90;;;;;;5020904;28;20223;-74
2023/04/22 04:26:28;;;;;;;1.90;1.80;;;18.80;45.00;;;;;;5017094;28;20922;-68
2023/04/22 04:28:54;;;;;;;1.87;1.77;;;18.80;45.00;;;;;;5012213;28;20492;-70
2023/04/22 04:31:20;;;;;;;1.83;1.73;;;18.80;45.00;;;;;;5014038;28;20206;-71
2023/04/22 04:33:46;;;;;;;1.70;1.60;;;18.80;45.00;;;;;;5012935;28;20476;-71
2023/04/22 04:36:12;;;;;;;1.80;1.70;;;18.80;45.00;;;;;;5018969;28;20229;-67
2023/04/22 04:38:37;;;;;;;1.97;1.83;;;18.80;44.90;;;;;;5017879;28;20262;-73
2023/04/22 04:41:03;;;;;;;1.80;1.70;;;18.80;44.90;;;;;;5018822;28;20231;-68
2023/04/22 04:43:29;;;;;;;1.73;1.63;;;18.80;45.00;;;;;;5021357;28;20237;-71
2023/04/22 04:45:54;;;;;;;2.00;1.90;;;18.80;44.90;;;;;;5015430;28;20249;-68
2023/04/22 04:48:23;;;;;;;1.60;1.50;;;18.80;44.90;;;;;;5017414;28;20316;-74
2023/04/22 04:50:52;;;;;;;1.73;1.63;;;18.80;45.00;;;;;;5011809;28;20229;-70
2023/04/22 04:53:21;;;;;;;1.97;1.87;;;18.80;44.90;;;;;;5015897;28;21069;-68
2023/04/22 04:55:47;;;;;;;1.87;1.77;;;18.80;45.00;;;;;;5019467;28;20471;-72
2023/04/22 04:58:12;;;;;;;1.80;1.70;;;18.80;45.00;;;;;;5018495;28;20475;-74
2023/04/22 05:00:38;;;;;;;1.97;1.87;;;18.80;44.90;;;;;;5018274;28;20801;-68
2023/04/22 05:03:04;;;;;;;1.67;1.57;;;18.80;44.90;;;;;;5017853;28;20706;-69
2023/04/22 05:05:29;;;;;;;2.07;1.97;;;18.80;44.90;;;;;;5014583;28;20660;-68
2023/04/22 05:07:55;;;;;;;2.03;1.83;;;18.90;45.00;;;;;;5020392;28;20634;-68
2023/04/22 05:10:20;;;;;;;1.90;1.80;;;18.90;45.00;;;;;;5015144;28;20650;-71
2023/04/22 05:12:46;;;;;;;1.60;1.50;;;18.80;44.90;;;;;;5016343;28;20695;-73
2023/04/22 05:15:12;;;;;;;1.90;1.80;;;18.80;44.90;;;;;;5014374;28;20218;-69
2023/04/22 05:17:38;;;;;;;1.83;1.73;;;18.80;44.80;;;;;;5012343;28;20254;-68
2023/04/22 05:20:04;;;;;;;1.50;1.40;;;18.90;44.90;;;;;;5011331;28;20464;-70
2023/04/22 05:22:30;;;;;;;1.73;1.63;;;18.80;45.00;;;;;;5014048;28;20280;-69
2023/04/22 05:24:55;;;;;;;2.03;1.93;;;18.90;45.00;;;;;;5009650;28;20596;-65
2023/04/22 05:27:21;;;;;;;2.13;1.83;;;18.90;44.90;;;;;;5012440;28;20225;-69
2023/04/22 05:29:46;;;;;;;1.67;1.57;;;18.80;44.80;;;;;;5014583;28;20685;-66
2023/04/22 05:32:12;;;;;;;1.73;1.63;;;18.90;45.00;;;;;;5009957;28;20222;-71
2023/04/22 05:34:37;;;;;;;1.70;1.60;;;18.90;44.90;;;;;;5009807;28;20229;-71
2023/04/22 05:37:04;;;;;;;1.60;1.50;;;18.90;45.00;;;;;;5012211;28;20669;-71
2023/04/22 05:39:29;;;;;;;1.73;1.63;;;18.90;44.90;;;;;;5011010;28;20339;-66
2023/04/22 05:41:55;;;;;;;1.80;1.70;;;18.80;44.90;;;;;;5013407;28;20499;-68
2023/04/22 05:44:20;;;;;;;1.87;1.77;;;18.90;45.00;;;;;;5011029;28;20234;-72
2023/04/22 05:46:46;;;;;;;1.80;1.70;;;18.90;45.00;;;;;;5012157;28;20214;-72
2023/04/22 05:49:12;;;;;;;1.60;1.50;;;18.90;45.00;;;;;;5011882;28;20237;-69
2023/04/22 05:51:37;;;;;;;2.20;2.10;;;18.90;45.00;;;;;;5010464;28;20683;-68
2023/04/22 05:54:03;;;;;;;1.67;1.57;;;18.90;45.00;;;;;;5013618;28;20326;-66
2023/04/22 05:56:28;;;;;;;2.30;1.80;;;18.90;44.90;;;;;;5012505;28;20310;-66
2023/04/22 05:58:54;;;;;;;1.67;1.57;;;18.90;45.00;;;;;;5011162;28;20235;-69
2023/04/22 06:01:19;;;;;;;1.50;1.40;;;18.90;45.00;;;;;;5011006;28;20223;-66
2023/04/22 06:03:45;;;;;;;1.70;1.60;;;18.80;44.90;;;;;;5008664;28;20298;-70
2023/04/22 06:06:11;;;;;;;1.50;1.40;;;18.90;45.00;;;;;;5005450;28;20252;-68
2023/04/22 06:08:36;;;;;;;1.67;1.57;;;18.90;45.00;;;;;;4996406;28;20254;-67
2023/04/22 06:11:02;;;;;;;2.63;1.70;;;18.90;45.10;;;;;;5012245;28;20376;-67
2023/04/22 06:13:27;;;;;;;1.93;1.83;;;18.90;45.00;;;;;;5008777;28;20231;-66
2023/04/22 06:15:53;;;;;;;2.10;1.90;;;18.90;45.00;;;;;;5016942;28;20265;-68
2023/04/22 06:18:18;;;;;;;1.70;1.60;;;18.90;45.00;;;;;;5014969;28;20237;-69
2023/04/22 06:20:44;;;;;;;2.10;2.00;;;18.90;45.00;;;;;;5011260;28;20231;-67
2023/04/22 06:23:09;;;;;;;2.23;2.13;;;18.90;45.80;;;;;;5017925;28;20368;-70
2023/04/22 06:25:35;;;;;;;1.70;1.60;;;18.90;45.00;;;;;;5014425;28;20725;-73
2023/04/22 06:28:00;;;;;;;1.90;1.80;;;18.90;45.80;;;;;;5014130;28;20230;-71
2023/04/22 06:30:26;;;;;;;1.60;1.50;;;18.90;44.90;;;;;;5009106;28;20870;-71
2023/04/22 06:32:52;;;;;;;1.80;1.70;;;18.90;45.00;;;;;;5017587;28;20622;-63
2023/04/22 06:35:17;;;;;;;1.63;1.53;;;18.80;45.00;;;;;;5009581;28;21204;-69
2023/04/22 06:37:43;;;;;;;1.90;1.80;;;18.90;45.00;;;;;;5012342;28;20226;-70
2023/04/22 06:40:09;;;;;;;1.60;1.50;;;18.80;44.90;;;;;;5011811;28;20768;-65
2023/04/22 06:42:35;;;;;;;1.63;1.53;;;18.80;45.00;;;;;;5007838;28;20830;-64
2023/04/22 06:45:02;;;;;;;1.77;1.67;;;18.80;44.90;;;;;;5006164;28;20537;-69
2023/04/22 06:47:28;;;;;;;1.70;1.60;;;18.90;45.00;;;;;;5016863;28;20674;-68
2023/04/22 06:49:53;;;;;;;1.83;1.73;;;18.90;45.00;;;;;;5010436;28;20437;-67
2023/04/22 06:52:20;;;;;;;2.00;1.90;;;18.90;45.00;;;;;;5012965;28;20223;-66
2023/04/22 06:54:46;;;;;;;2.23;1.70;;;18.90;45.00;;;;;;5009689;28;20241;-68
2023/04/22 06:57:11;;;;;;;1.60;1.50;;;18.80;44.90;;;;;;5017006;28;20422;-70
2023/04/22 06:59:37;;;;;;;1.60;1.50;;;18.90;45.00;;;;;;5011457;28;20234;-66
2023/04/22 07:02:02;;;;;;;2.00;1.83;;;18.90;45.00;;;;;;5010879;28;20253;-70
2023/04/22 07:04:30;;;;;;;1.70;1.60;;;18.80;45.00;;;;;;5005563;28;21771;-69
2023/04/22 07:06:55;;;;;;;1.70;1.60;;;18.90;45.00;;;;;;5006194;28;20293;-71
2023/04/22 07:09:21;;;;;;;1.67;1.57;;;18.80;44.90;;;;;;5011745;28;20539;-70
2023/04/22 07:11:46;;;;;;;1.90;1.80;;;18.90;45.00;;;;;;5012163;28;20234;-66
2023/04/22 07:14:12;;;;;;;1.50;1.40;;;18.90;45.00;;;;;;5009885;28;20223;-68
2023/04/22 07:16:38;;;;;;;1.50;1.40;;;18.80;44.90;;;;;;5006895;28;20709;-66
2023/04/22 07:19:04;;;;;;;1.77;1.67;;;18.90;45.00;;;;;;5001433;28;20242;-67
2023/04/22 07:21:31;;;;;;;1.60;1.50;;;18.90;44.90;;;;;;5012350;28;20306;-65
2023/04/22 07:23:57;;;;;;;1.90;1.80;;;18.90;45.00;;;;;;5013753;28;20519;-65
2023/04/22 07:26:22;;;;;;;2.37;1.50;;;18.90;45.30;;;;;;5016937;28;20462;-66
2023/04/22 07:28:48;;;;;;;1.73;1.63;;;18.90;45.00;;;;;;5009589;28;20274;-65
2023/04/22 07:31:13;;;;;;;1.80;1.67;;;18.90;45.00;;;;;;5011309;28;20349;-69
2023/04/22 07:33:39;;;;;;;1.60;1.50;;;18.90;45.00;;;;;;5016168;28;20223;-66
2023/04/22 07:36:05;;;;;;;1.60;1.50;;;18.90;45.10;;;;;;5013689;28;20245;-66
2023/04/22 07:38:31;;;;;;;1.40;1.30;;;18.90;45.00;;;;;;5011962;28;20284;-68
2023/04/22 07:40:56;;;;;;;1.67;1.57;;;18.90;45.00;;;;;;5017365;28;20450;-66
2023/04/22 07:43:22;;;;;;;2.00;1.80;;;18.90;45.00;;;;;;5017396;28;20221;-67
2023/04/22 07:45:47;;;;;;;1.60;1.50;;;18.90;45.00;;;;;;5016056;28;20362;-66
2023/04/22 07:48:13;;;;;;;1.60;1.50;;;18.90;45.00;;;;;;5017143;28;20226;-66
2023/04/22 07:50:38;;;;;;;1.40;1.30;;;18.90;45.00;;;;;;5016058;28;20627;-66
2023/04/22 07:53:04;;;;;;;1.60;1.50;;;18.90;45.00;;;;;;5020116;28;20226;-69
2023/04/22 07:55:30;;;;;;;1.40;1.30;;;18.90;45.00;;;;;;5016713;28;20234;-66
2023/04/22 07:57:56;;;;;;;1.60;1.50;;;18.90;44.90;;;;;;5012558;28;20242;-66
2023/04/22 08:00:21;;;;;;;1.90;1.60;;;18.90;45.00;;;;;;5009683;28;20222;-71
2023/04/22 08:02:47;;;;;;;1.67;1.57;;;18.90;45.00;;;;;;5015710;28;20241;-70
2023/04/22 08:05:12;;;;;;;1.90;1.80;;;18.90;45.00;;;;;;5009836;28;20222;-65
2023/04/22 08:07:38;;;;;;;1.50;1.40;;;18.90;45.00;;;;;;5012842;28;20517;-70
2023/04/22 08:10:04;;;;;;;1.60;1.50;;;18.90;45.00;;;;;;5006939;28;20846;-69
2023/04/22 08:12:30;;;;;;;1.63;1.40;;;18.90;45.00;;;;;;5015240;28;20211;-68
2023/04/22 08:14:57;;;;;;;1.70;1.60;;;18.90;45.10;;;;;;5009347;28;20442;-66
2023/04/22 08:17:22;;;;;;;2.00;1.90;;;18.90;45.00;;;;;;5014639;28;20675;-65
2023/04/22 08:19:48;;;;;;;1.70;1.60;;;18.90;45.00;;;;;;5013544;28;20442;-68
2023/04/22 08:22:14;;;;;;;1.50;1.40;;;18.90;45.00;;;;;;5010666;28;20231;-67
2023/04/22 08:24:40;;;;;;;1.60;1.50;;;18.90;45.00;;;;;;5010639;28;21071;-69
2023/04/22 08:27:06;;;;;;;1.50;1.40;;;18.90;45.00;;;;;;5004251;28;20493;-68
2023/04/22 08:29:32;;;;;;;1.73;1.60;;;18.90;45.00;;;;;;5003602;28;21125;-70
2023/04/22 08:31:57;;;;;;;1.70;1.60;;;18.90;45.00;;;;;;5002335;28;20237;-76
2023/04/22 08:34:25;;;;;;;1.33;1.23;;;18.90;45.00;;;;;;5015236;28;20444;-67
2023/04/22 08:36:50;;;;;;;1.70;1.60;;;18.90;45.00;;;;;;5012899;28;20238;-69
2023/04/22 08:39:17;;;;;;;1.60;1.50;;;19.00;45.00;;;;;;5015022;28;21278;-62
2023/04/22 08:41:43;;;;;;;1.77;1.53;;;18.90;45.00;;;;;;5008884;28;20227;-70
2023/04/22 08:44:10;;;;;;;1.57;1.47;;;19.00;44.90;;;;;;5011227;28;20846;-67
2023/04/22 08:46:36;;;;;;;2.07;1.50;;;19.00;44.80;;;;;;5008162;28;20447;-65
2023/04/22 08:49:03;;;;;;;1.50;1.40;;;19.00;44.70;;;;;;5014105;28;20450;-62
2023/04/22 08:51:31;;;;;;;1.43;1.33;;;19.00;44.80;;;;;;5009691;28;20454;-64
2023/04/22 08:53:56;;;;;;;1.70;1.60;;;19.00;44.70;;;;;;5017882;28;21364;-65
2023/04/22 08:56:23;;;;;;;1.53;1.43;;;19.00;44.80;;;;;;5011402;28;20420;-64
2023/04/22 08:58:50;;;;;;;1.50;1.40;;;19.00;44.70;;;;;;5011991;28;20313;-65
2023/04/22 09:01:16;;;;;;;2.20;1.70;;;19.10;44.70;;;;;;5007658;28;20448;-64
2023/04/22 09:03:42;;;;;;;1.70;1.60;;;19.10;44.70;;;;;;5006135;28;20450;-68
2023/04/22 09:06:10;;;;;;;1.67;1.57;;;19.10;44.70;;;;;;5007311;28;20426;-63
2023/04/22 09:08:36;;;;;;;1.93;1.20;;;19.10;44.70;;;;;;5004643;28;21706;-66
2023/04/22 09:11:02;;;;;;;5.43;2.20;;;19.10;44.70;;;;;;5012040;28;20468;-66
2023/04/22 09:13:28;;;;;;;1.67;1.57;;;19.10;44.70;;;;;;5012840;28;20229;-66
2023/04/22 09:15:54;;;;;;;1.77;1.50;;;19.10;44.60;;;;;;5015977;28;20452;-64
2023/04/22 09:18:20;;;;;;;1.47;1.37;;;19.10;44.40;;;;;;5014441;28;20587;-65
2023/04/22 09:20:48;;;;;;;3.73;1.73;;;19.10;44.40;;;;;;5018651;28;20226;-67
2023/04/22 09:23:15;;;;;;;1.37;1.27;;;19.10;44.40;;;;;;5017339;28;20268;-62
2023/04/22 09:25:41;;;;;;;1.60;1.50;;;19.10;44.40;;;;;;5015803;28;20456;-66
2023/04/22 09:28:11;;;;;;;1.43;1.33;;;19.20;44.60;;;;;;5015754;28;20521;-65
2023/04/22 09:30:36;;;;;;;1.40;1.30;;;19.10;44.50;;;;;;5016559;28;20442;-66
2023/04/22 09:33:06;;;;;;;2.60;1.63;;;19.20;44.70;;;;;;5019393;28;20430;-63
2023/04/22 09:35:36;;;;;;;1.40;1.30;;;19.20;44.70;;;;;;5017355;28;20290;-66
2023/04/22 09:38:05;;;;;;;1.87;1.77;;;19.20;44.80;;;;;;5015185;28;20461;-63
2023/04/22 09:40:31;;;;;;;1.77;1.67;;;19.20;44.80;;;;;;5012953;28;20460;-62
2023/04/22 09:42:58;;;;;;;1.80;1.70;;;19.20;44.80;;;;;;5014804;28;21658;-64
2023/04/22 09:45:36;;;;;;;2.30;1.23;;;19.10;44.70;;;;;;5015519;28;20426;-63
2023/04/22 09:48:10;;;;;;;2.50;1.90;;;19.20;44.80;;;;;;5014619;28;21073;-64
2023/04/22 09:50:37;;;;;;;1.70;1.60;;;19.20;44.80;;;;;;5012780;28;20467;-65
2023/04/22 09:53:08;;;;;;;1.60;1.50;;;19.20;44.80;;;;;;5012612;28;20431;-67
2023/04/22 09:55:41;;;;;;;1.53;1.30;;;19.20;44.80;;;;;;5011611;28;20440;-65
2023/04/22 09:58:09;;;;;;;1.67;1.57;;;19.20;44.90;;;;;;5015704;28;20531;-63
2023/04/22 10:00:43;;;;;;;1.20;1.10;;;19.20;44.80;;;;;;5013646;28;20468;-63
2023/04/22 10:03:08;;;;;;;1.30;1.20;;;19.20;44.90;;;;;;5009068;28;20912;-63
2023/04/22 10:05:37;;;;;;;1.97;1.37;;;19.20;44.90;;;;;;5010794;28;20472;-64
2023/04/22 10:08:04;;;;;;;1.57;1.47;;;19.20;44.90;;;;;;5012576;28;20587;-62
2023/04/22 10:10:31;;;;;;;1.50;1.40;;;19.20;44.90;;;;;;5010635;28;20460;-70
2023/04/22 10:12:57;;;;;;;3.93;1.40;;;19.20;44.90;;;;;;5010854;28;20518;-68
2023/04/22 10:15:24;;;;;;;2.70;1.70;;;19.20;44.80;;;;;;5008885;28;21124;-67
2023/04/22 10:17:51;;;;;;;1.57;1.47;;;19.20;44.50;;;;;;5011053;28;20257;-62
2023/04/22 10:20:19;;;;;;;2.97;2.77;;;19.30;44.40;;;;;;5011731;28;20449;-63
2023/04/22 10:22:46;;;;;;;3.90;1.50;;;19.30;44.20;;;;;;5012572;28;20460;-64
2023/04/22 10:25:25;;;;;;;1.70;1.60;;;19.30;44.10;;;;;;5014283;28;20463;-63
2023/04/22 10:28:02;;;;;;;1.93;1.57;;;19.30;44.30;;;;;;5015782;28;20473;-64
2023/04/22 10:30:30;;;;;;;1.70;1.60;;;19.30;44.30;;;;;;5010159;28;21422;-66
2023/04/22 10:32:55;;;;;;;1.70;1.60;;;19.30;44.20;;;;;;5008402;28;20441;-69
2023/04/22 10:35:30;;;;;;;1.57;1.47;;;19.30;44.20;;;;;;5011291;28;20435;-65
2023/04/22 10:37:56;;;;;;;1.63;1.53;;;19.30;44.20;;;;;;5014119;28;20584;-65
2023/04/22 10:40:22;;;;;;;3.47;2.03;;;19.30;44.40;;;;;;5009299;28;20468;-64
2023/04/22 10:42:52;;;;;;;6.00;1.80;;;19.30;44.40;;;;;;5013651;28;20234;-67
2023/04/22 10:45:22;;;;;;;5.60;1.87;;;19.40;44.50;;;;;;5006069;28;20230;-63
2023/04/22 10:47:48;;;;;;;5.60;1.80;;;19.30;44.60;;;;;;5012192;28;20459;-63
2023/04/22 10:50:22;;;;;;;3.00;1.80;;;19.30;44.70;;;;;;5009711;28;20451;-62
2023/04/22 10:52:59;;;;;;;5.57;2.40;;;19.40;44.70;;;;;;5018642;28;20320;-64
2023/04/22 10:55:25;;;;;;;5.83;2.47;;;19.30;44.60;;;;;;5021401;28;20472;-66
2023/04/22 10:57:52;;;;;;;2.00;1.80;;;19.40;44.80;;;;;;5019735;28;20476;-68
2023/04/22 11:00:24;;;;;;;2.23;1.70;;;19.30;44.80;;;;;;5020256;28;20430;-64
2023/04/22 11:03:09;;;;;;;1.67;1.50;;;19.30;44.70;;;;;;5015680;28;20467;-62
2023/04/22 11:05:35;;;;;;;3.03;1.87;;;19.40;44.80;;;;;;5014551;28;20466;-68
2023/04/22 11:08:07;;;;;;;2.13;1.50;;;19.40;44.80;;;;;;5010744;28;20489;-63
2023/04/22 11:10:42;;;;;;;1.70;1.60;;;19.40;44.80;;;;;;5016204;28;20459;-65
2023/04/22 11:13:15;;;;;;;3.90;1.70;;;19.40;44.80;;;;;;5020484;28;20655;-63
2023/04/22 11:15:44;;;;;;;1.60;1.50;;;19.40;44.80;;;;;;5017574;28;20442;-64
2023/04/22 11:18:15;;;;;;;1.60;1.37;;;19.40;44.80;;;;;;5021343;28;20458;-63
2023/04/22 11:20:41;;;;;;;2.17;1.50;;;19.40;44.80;;;;;;5017257;28;21370;-64
2023/04/22 11:23:07;;;;;;;1.50;1.40;;;19.40;44.80;;;;;;5016556;28;20471;-62
2023/04/22 11:25:32;;;;;;;1.57;1.47;;;19.40;44.80;;;;;;5020180;28;20222;-62
2023/04/22 11:27:58;;;;;;;1.93;1.80;;;19.40;44.80;;;;;;5021713;28;20227;-64
2023/04/22 11:30:26;;;;;;;2.53;1.70;;;19.40;44.80;;;;;;5018180;28;20214;-62
2023/04/22 11:32:54;;;;;;;5.17;1.70;;;19.40;44.90;;;;;;5018569;28;20688;-67
2023/04/22 11:35:31;;;;;;;1.50;1.40;;;19.40;44.90;;;;;;5021213;28;20437;-62
2023/04/22 11:38:02;;;;;;;1.70;1.60;;;19.40;44.80;;;;;;5016589;28;20478;-63
2023/04/22 11:40:30;;;;;;;1.70;1.60;;;19.40;44.90;;;;;;5020079;28;20455;-63
2023/04/22 11:42:56;;;;;;;2.50;1.70;;;19.40;44.90;;;;;;5019463;28;20464;-65
2023/04/22 11:45:22;;;;;;;1.57;1.47;;;19.40;44.80;;;;;;5016403;28;20460;-68
2023/04/22 11:47:50;;;;;;;2.30;1.57;;;19.40;44.80;;;;;;5018081;28;20419;-66
2023/04/22 11:50:17;;;;;;;1.43;1.33;;;19.40;44.90;;;;;;5015732;28;20452;-64
2023/04/22 11:52:54;;;;;;;2.30;1.50;;;19.40;44.90;;;;;;5014767;28;20424;-63
2023/04/22 11:55:20;;;;;;;2.00;1.40;;;19.40;44.90;;;;;;5009830;28;20491;-63
2023/04/22 11:58:04;;;;;;;1.50;1.40;;;19.40;45.70;;;;;;5014535;28;20471;-65
2023/04/22 12:00:41;;;;;;;2.40;1.67;;;19.40;45.00;;;;;;5016439;28;20804;-64
2023/04/22 12:03:11;;;;;;;1.57;1.47;;;19.40;45.00;;;;;;5013598;28;20865;-64
2023/04/22 12:05:42;;;;;;;1.60;1.50;;;19.40;45.00;;;;;;5013649;28;21154;-63
2023/04/22 12:08:10;;;;;;;1.50;1.40;;;19.40;45.00;;;;;;5010401;28;20443;-68
2023/04/22 12:10:54;;;;;;;2.03;1.50;;;19.40;45.00;;;;;;5013377;28;22542;-67
2023/04/22 12:13:27;;;;;;;1.60;1.43;;;19.40;44.90;;;;;;5013412;28;20468;-64
2023/04/22 12:16:05;;;;;;;8.90;3.30;;;19.40;45.00;;;;;;5009289;28;20467;-64
2023/04/22 12:18:35;;;;;;;6.57;2.00;;;19.40;44.90;;;;;;5006145;28;20491;-64
2023/04/22 12:21:11;;;;;;;3.80;1.70;;;19.40;45.00;;;;;;5012578;28;20933;-64
2023/04/22 12:24:03;;;;;;;3.70;2.43;;;19.40;45.00;;;;;;5009556;28;20463;-64
2023/04/22 12:26:29;;;;;;;1.87;1.67;;;19.40;44.90;;;;;;5000194;28;20533;-63
2023/04/22 12:28:59;;;;;;;2.50;1.57;;;19.40;45.00;;;;;;5010640;28;20468;-67
2023/04/22 12:31:26;;;;;;;6.60;2.00;;;19.40;45.00;;;;;;5011179;28;20223;-67
2023/04/22 12:33:52;;;;;;;6.00;2.13;;;19.50;45.00;;;;;;5017155;28;20434;-64
2023/04/22 12:36:22;;;;;;;1.77;1.60;;;19.40;45.00;;;;;;5010578;28;21080;-64
2023/04/22 12:38:48;;;;;;;6.13;1.90;;;19.40;45.10;;;;;;5013776;28;20471;-67
2023/04/22 12:41:14;;;;;;;2.17;1.70;;;19.40;45.10;;;;;;5011784;28;20444;-65
2023/04/22 12:43:40;;;;;;;2.33;1.40;;;19.40;45.00;;;;;;5013981;28;20546;-65
2023/04/22 12:46:07;;;;;;;4.67;1.70;;;19.40;45.10;;;;;;5017270;28;20442;-66